sensor_id;sensor_type;location;lat;lon;timestamp;temperature;humidity
67641;SHT31;54434;50.096;20.082;2022-10-16T00:01:45;12.91;75.61
67641;SHT31;54434;50.096;20.082;2022-10-16T00:04:21;12.94;74.91
67641;SHT31;54434;50.096;20.082;2022-10-16T00:06:57;12.95;75.05
67641;SHT31;54434;50.096;20.082;2022-10-16T00:09:33;12.92;75.50
67641;SHT31;54434;50.096;20.082;2022-10-16T00:12:18;12.92;75.12
67641;SHT31;54434;50.096;20.082;2022-10-16T00:14:54;12.94;74.99
67641;SHT31;54434;50.096;20.082;2022-10-16T00:17:30;12.96;74.80
67641;SHT31;54434;50.096;20.082;2022-10-16T00:20:08;12.94;75.17
67641;SHT31;54434;50.096;20.082;2022-10-16T00:22:44;12.96;75.29
67641;SHT31;54434;50.096;20.082;2022-10-16T00:25:20;12.96;75.42
67641;SHT31;54434;50.096;20.082;2022-10-16T00:27:56;12.95;75.47
67641;SHT31;54434;50.096;20.082;2022-10-16T00:30:32;12.96;75.55
67641;SHT31;54434;50.096;20.082;2022-10-16T00:33:11;12.96;75.57
67641;SHT31;54434;50.096;20.082;2022-10-16T00:35:47;12.97;75.72
67641;SHT31;54434;50.096;20.082;2022-10-16T00:38:23;12.97;75.83
67641;SHT31;54434;50.096;20.082;2022-10-16T00:40:59;12.97;75.78
67641;SHT31;54434;50.096;20.082;2022-10-16T00:43:38;12.96;76.32
67641;SHT31;54434;50.096;20.082;2022-10-16T00:46:20;12.96;76.02
67641;SHT31;54434;50.096;20.082;2022-10-16T00:49:05;12.96;75.95
67641;SHT31;54434;50.096;20.082;2022-10-16T00:51:45;12.98;75.84
67641;SHT31;54434;50.096;20.082;2022-10-16T00:54:24;12.97;76.05
67641;SHT31;54434;50.096;20.082;2022-10-16T00:57:05;12.96;76.26
67641;SHT31;54434;50.096;20.082;2022-10-16T00:59:42;12.95;76.30
67641;SHT31;54434;50.096;20.082;2022-10-16T01:02:18;12.95;76.25
67641;SHT31;54434;50.096;20.082;2022-10-16T01:04:54;12.95;76.35
67641;SHT31;54434;50.096;20.082;2022-10-16T01:07:36;12.95;76.43
67641;SHT31;54434;50.096;20.082;2022-10-16T01:10:30;12.96;76.50
67641;SHT31;54434;50.096;20.082;2022-10-16T01:13:12;12.93;76.51
67641;SHT31;54434;50.096;20.082;2022-10-16T01:15:59;12.90;76.69
67641;SHT31;54434;50.096;20.082;2022-10-16T01:18:46;12.90;76.96
67641;SHT31;54434;50.096;20.082;2022-10-16T01:21:31;12.90;77.35
67641;SHT31;54434;50.096;20.082;2022-10-16T01:24:22;12.91;76.68
67641;SHT31;54434;50.096;20.082;2022-10-16T01:27:12;12.94;76.26
67641;SHT31;54434;50.096;20.082;2022-10-16T01:29:56;12.94;76.55
67641;SHT31;54434;50.096;20.082;2022-10-16T01:32:42;12.92;76.56
67641;SHT31;54434;50.096;20.082;2022-10-16T01:35:24;12.93;76.36
67641;SHT31;54434;50.096;20.082;2022-10-16T01:38:06;12.96;76.16
67641;SHT31;54434;50.096;20.082;2022-10-16T01:40:49;12.98;76.02
67641;SHT31;54434;50.096;20.082;2022-10-16T01:43:33;12.99;75.89
67641;SHT31;54434;50.096;20.082;2022-10-16T01:46:15;13.01;75.82
67641;SHT31;54434;50.096;20.082;2022-10-16T01:48:54;13.01;75.95
67641;SHT31;54434;50.096;20.082;2022-10-16T01:51:32;13.01;76.14
67641;SHT31;54434;50.096;20.082;2022-10-16T01:54:11;13.02;76.09
67641;SHT31;54434;50.096;20.082;2022-10-16T01:56:52;13.03;76.25
67641;SHT31;54434;50.096;20.082;2022-10-16T01:59:31;13.04;76.16
67641;SHT31;54434;50.096;20.082;2022-10-16T02:02:13;13.05;76.08
67641;SHT31;54434;50.096;20.082;2022-10-16T02:04:53;13.05;76.40
67641;SHT31;54434;50.096;20.082;2022-10-16T02:07:35;13.06;76.33
67641;SHT31;54434;50.096;20.082;2022-10-16T02:10:13;13.05;76.37
67641;SHT31;54434;50.096;20.082;2022-10-16T02:12:53;13.06;76.45
67641;SHT31;54434;50.096;20.082;2022-10-16T02:15:36;13.03;76.77
67641;SHT31;54434;50.096;20.082;2022-10-16T02:18:12;13.03;77.06
67641;SHT31;54434;50.096;20.082;2022-10-16T02:20:51;13.00;77.21
67641;SHT31;54434;50.096;20.082;2022-10-16T02:23:36;12.98;77.50
67641;SHT31;54434;50.096;20.082;2022-10-16T02:26:25;12.98;77.40
67641;SHT31;54434;50.096;20.082;2022-10-16T02:29:10;13.01;76.82
67641;SHT31;54434;50.096;20.082;2022-10-16T02:31:52;12.99;76.99
67641;SHT31;54434;50.096;20.082;2022-10-16T02:34:33;12.98;77.19
67641;SHT31;54434;50.096;20.082;2022-10-16T02:37:12;12.98;77.56
67641;SHT31;54434;50.096;20.082;2022-10-16T02:39:50;12.97;77.56
67641;SHT31;54434;50.096;20.082;2022-10-16T02:42:31;12.96;77.72
67641;SHT31;54434;50.096;20.082;2022-10-16T02:45:11;12.96;77.57
67641;SHT31;54434;50.096;20.082;2022-10-16T02:47:47;12.96;77.34
67641;SHT31;54434;50.096;20.082;2022-10-16T02:50:23;12.97;77.12
67641;SHT31;54434;50.096;20.082;2022-10-16T02:52:59;12.97;77.00
67641;SHT31;54434;50.096;20.082;2022-10-16T02:55:35;12.97;76.85
67641;SHT31;54434;50.096;20.082;2022-10-16T02:58:11;12.98;76.73
67641;SHT31;54434;50.096;20.082;2022-10-16T03:00:47;12.96;77.09
67641;SHT31;54434;50.096;20.082;2022-10-16T03:03:23;12.94;76.90
67641;SHT31;54434;50.096;20.082;2022-10-16T03:05:59;12.94;76.85
67641;SHT31;54434;50.096;20.082;2022-10-16T03:08:35;12.94;76.87
67641;SHT31;54434;50.096;20.082;2022-10-16T03:11:11;12.93;76.91
67641;SHT31;54434;50.096;20.082;2022-10-16T03:13:47;12.92;76.91
67641;SHT31;54434;50.096;20.082;2022-10-16T03:16:23;12.88;77.14
67641;SHT31;54434;50.096;20.082;2022-10-16T03:18:58;12.87;77.35
67641;SHT31;54434;50.096;20.082;2022-10-16T03:21:34;12.85;77.31
67641;SHT31;54434;50.096;20.082;2022-10-16T03:24:10;12.83;77.66
67641;SHT31;54434;50.096;20.082;2022-10-16T03:26:46;12.80;77.63
67641;SHT31;54434;50.096;20.082;2022-10-16T03:29:22;12.79;77.60
67641;SHT31;54434;50.096;20.082;2022-10-16T03:32:00;12.75;77.88
67641;SHT31;54434;50.096;20.082;2022-10-16T03:34:37;12.72;77.95
67641;SHT31;54434;50.096;20.082;2022-10-16T03:37:13;12.73;77.91
67641;SHT31;54434;50.096;20.082;2022-10-16T03:39:49;12.73;77.74
67641;SHT31;54434;50.096;20.082;2022-10-16T03:42:26;12.73;77.73
67641;SHT31;54434;50.096;20.082;2022-10-16T03:45:02;12.73;77.99
67641;SHT31;54434;50.096;20.082;2022-10-16T03:47:39;12.73;77.83
67641;SHT31;54434;50.096;20.082;2022-10-16T03:50:15;12.71;78.18
67641;SHT31;54434;50.096;20.082;2022-10-16T03:52:51;12.69;78.27
67641;SHT31;54434;50.096;20.082;2022-10-16T03:55:27;12.65;78.50
67641;SHT31;54434;50.096;20.082;2022-10-16T03:58:03;12.62;78.71
67641;SHT31;54434;50.096;20.082;2022-10-16T04:00:41;12.61;78.66
67641;SHT31;54434;50.096;20.082;2022-10-16T04:03:19;12.59;78.68
67641;SHT31;54434;50.096;20.082;2022-10-16T04:05:55;12.57;78.80
67641;SHT31;54434;50.096;20.082;2022-10-16T04:08:31;12.58;78.73
67641;SHT31;54434;50.096;20.082;2022-10-16T04:11:08;12.57;78.82
67641;SHT31;54434;50.096;20.082;2022-10-16T04:13:44;12.57;79.00
67641;SHT31;54434;50.096;20.082;2022-10-16T04:16:20;12.57;78.98
67641;SHT31;54434;50.096;20.082;2022-10-16T04:18:56;12.56;78.91
67641;SHT31;54434;50.096;20.082;2022-10-16T04:21:33;12.56;78.90
67641;SHT31;54434;50.096;20.082;2022-10-16T04:24:09;12.56;78.83
67641;SHT31;54434;50.096;20.082;2022-10-16T04:26:44;12.58;78.95
67641;SHT31;54434;50.096;20.082;2022-10-16T04:29:20;12.57;79.14
67641;SHT31;54434;50.096;20.082;2022-10-16T04:31:56;12.57;79.18
67641;SHT31;54434;50.096;20.082;2022-10-16T04:34:32;12.57;79.19
67641;SHT31;54434;50.096;20.082;2022-10-16T04:37:09;12.59;79.03
67641;SHT31;54434;50.096;20.082;2022-10-16T04:39:45;12.59;79.13
67641;SHT31;54434;50.096;20.082;2022-10-16T04:42:21;12.58;79.29
67641;SHT31;54434;50.096;20.082;2022-10-16T04:44:56;12.57;79.46
67641;SHT31;54434;50.096;20.082;2022-10-16T04:47:32;12.57;79.52
67641;SHT31;54434;50.096;20.082;2022-10-16T04:50:09;12.58;79.45
67641;SHT31;54434;50.096;20.082;2022-10-16T04:53:02;12.57;79.62
67641;SHT31;54434;50.096;20.082;2022-10-16T04:55:38;12.58;79.66
67641;SHT31;54434;50.096;20.082;2022-10-16T04:58:14;12.56;79.65
67641;SHT31;54434;50.096;20.082;2022-10-16T05:00:50;12.53;79.58
67641;SHT31;54434;50.096;20.082;2022-10-16T05:03:27;12.51;79.63
67641;SHT31;54434;50.096;20.082;2022-10-16T05:06:04;12.48;79.63
67641;SHT31;54434;50.096;20.082;2022-10-16T05:08:40;12.44;79.60
67641;SHT31;54434;50.096;20.082;2022-10-16T05:11:16;12.39;79.61
67641;SHT31;54434;50.096;20.082;2022-10-16T05:13:52;12.35;79.54
67641;SHT31;54434;50.096;20.082;2022-10-16T05:16:28;12.28;79.54
67641;SHT31;54434;50.096;20.082;2022-10-16T05:19:04;12.23;79.62
67641;SHT31;54434;50.096;20.082;2022-10-16T05:21:58;12.20;79.66
67641;SHT31;54434;50.096;20.082;2022-10-16T05:24:34;12.20;79.70
67641;SHT31;54434;50.096;20.082;2022-10-16T05:27:11;12.19;79.64
67641;SHT31;54434;50.096;20.082;2022-10-16T05:29:50;12.17;79.82
67641;SHT31;54434;50.096;20.082;2022-10-16T05:32:26;12.15;80.00
67641;SHT31;54434;50.096;20.082;2022-10-16T05:35:02;12.16;79.86
67641;SHT31;54434;50.096;20.082;2022-10-16T05:37:43;12.17;79.84
67641;SHT31;54434;50.096;20.082;2022-10-16T05:40:19;12.18;79.80
67641;SHT31;54434;50.096;20.082;2022-10-16T05:42:57;12.19;79.93
67641;SHT31;54434;50.096;20.082;2022-10-16T05:45:33;12.24;79.96
67641;SHT31;54434;50.096;20.082;2022-10-16T05:48:09;12.29;79.94
67641;SHT31;54434;50.096;20.082;2022-10-16T05:50:45;12.35;79.97
67641;SHT31;54434;50.096;20.082;2022-10-16T05:53:21;12.40;80.07
67641;SHT31;54434;50.096;20.082;2022-10-16T05:55:57;12.45;80.03
67641;SHT31;54434;50.096;20.082;2022-10-16T05:58:35;12.52;79.95
67641;SHT31;54434;50.096;20.082;2022-10-16T06:01:13;12.60;79.93
67641;SHT31;54434;50.096;20.082;2022-10-16T06:03:52;12.69;80.00
67641;SHT31;54434;50.096;20.082;2022-10-16T06:06:29;12.77;79.92
67641;SHT31;54434;50.096;20.082;2022-10-16T06:09:05;12.85;79.81
67641;SHT31;54434;50.096;20.082;2022-10-16T06:11:41;12.91;79.61
67641;SHT31;54434;50.096;20.082;2022-10-16T06:14:17;13.00;79.74
67641;SHT31;54434;50.096;20.082;2022-10-16T06:16:53;13.08;79.78
67641;SHT31;54434;50.096;20.082;2022-10-16T06:19:29;13.16;79.63
67641;SHT31;54434;50.096;20.082;2022-10-16T06:22:05;13.24;79.68
67641;SHT31;54434;50.096;20.082;2022-10-16T06:24:42;13.35;79.51
67641;SHT31;54434;50.096;20.082;2022-10-16T06:27:19;13.47;79.05
67641;SHT31;54434;50.096;20.082;2022-10-16T06:29:55;13.59;78.79
67641;SHT31;54434;50.096;20.082;2022-10-16T06:32:30;13.72;78.17
67641;SHT31;54434;50.096;20.082;2022-10-16T06:35:07;13.84;78.15
67641;SHT31;54434;50.096;20.082;2022-10-16T06:37:43;13.97;78.15
67641;SHT31;54434;50.096;20.082;2022-10-16T06:40:19;14.11;77.38
67641;SHT31;54434;50.096;20.082;2022-10-16T06:42:57;14.29;76.74
67641;SHT31;54434;50.096;20.082;2022-10-16T06:45:33;14.55;76.35
67641;SHT31;54434;50.096;20.082;2022-10-16T06:48:08;14.89;75.45
67641;SHT31;54434;50.096;20.082;2022-10-16T06:50:44;15.27;74.79
67641;SHT31;54434;50.096;20.082;2022-10-16T06:53:32;15.60;74.08
67641;SHT31;54434;50.096;20.082;2022-10-16T06:56:32;16.05;73.07
67641;SHT31;54434;50.096;20.082;2022-10-16T06:59:09;16.51;71.96
67641;SHT31;54434;50.096;20.082;2022-10-16T07:01:44;16.93;71.09
67641;SHT31;54434;50.096;20.082;2022-10-16T07:04:21;17.17;70.49
67641;SHT31;54434;50.096;20.082;2022-10-16T07:06:56;17.36;69.67
67641;SHT31;54434;50.096;20.082;2022-10-16T07:09:39;17.44;69.19
67641;SHT31;54434;50.096;20.082;2022-10-16T07:12:15;17.58;68.58
67641;SHT31;54434;50.096;20.082;2022-10-16T07:14:51;17.65;68.01
67641;SHT31;54434;50.096;20.082;2022-10-16T07:17:27;17.70;68.15
67641;SHT31;54434;50.096;20.082;2022-10-16T07:20:03;17.86;68.25
67641;SHT31;54434;50.096;20.082;2022-10-16T07:22:41;18.09;67.63
67641;SHT31;54434;50.096;20.082;2022-10-16T07:25:17;18.50;66.95
67641;SHT31;54434;50.096;20.082;2022-10-16T07:27:53;18.97;65.48
67641;SHT31;54434;50.096;20.082;2022-10-16T07:30:28;19.44;64.86
67641;SHT31;54434;50.096;20.082;2022-10-16T07:33:06;19.95;63.97
67641;SHT31;54434;50.096;20.082;2022-10-16T07:35:50;20.52;61.45
67641;SHT31;54434;50.096;20.082;2022-10-16T07:38:27;21.07;59.97
67641;SHT31;54434;50.096;20.082;2022-10-16T07:41:04;21.43;57.70
67641;SHT31;54434;50.096;20.082;2022-10-16T07:43:46;21.65;56.80
67641;SHT31;54434;50.096;20.082;2022-10-16T07:46:23;21.83;55.89
67641;SHT31;54434;50.096;20.082;2022-10-16T07:49:00;22.04;55.51
67641;SHT31;54434;50.096;20.082;2022-10-16T07:51:36;22.31;54.78
67641;SHT31;54434;50.096;20.082;2022-10-16T07:54:12;22.50;54.17
67641;SHT31;54434;50.096;20.082;2022-10-16T07:56:48;22.56;53.78
67641;SHT31;54434;50.096;20.082;2022-10-16T07:59:23;22.61;53.51
67641;SHT31;54434;50.096;20.082;2022-10-16T08:01:59;22.63;53.47
67641;SHT31;54434;50.096;20.082;2022-10-16T08:04:35;22.61;53.08
67641;SHT31;54434;50.096;20.082;2022-10-16T08:07:11;22.51;53.38
67641;SHT31;54434;50.096;20.082;2022-10-16T08:09:50;22.43;53.16
67641;SHT31;54434;50.096;20.082;2022-10-16T08:12:27;22.31;53.06
67641;SHT31;54434;50.096;20.082;2022-10-16T08:15:04;22.22;52.97
67641;SHT31;54434;50.096;20.082;2022-10-16T08:17:43;22.17;53.22
67641;SHT31;54434;50.096;20.082;2022-10-16T08:20:28;22.04;53.40
67641;SHT31;54434;50.096;20.082;2022-10-16T08:23:08;21.95;53.61
67641;SHT31;54434;50.096;20.082;2022-10-16T08:25:45;21.82;53.71
67641;SHT31;54434;50.096;20.082;2022-10-16T08:28:20;21.73;54.35
67641;SHT31;54434;50.096;20.082;2022-10-16T08:31:03;21.68;54.59
67641;SHT31;54434;50.096;20.082;2022-10-16T08:33:43;21.65;54.40
67641;SHT31;54434;50.096;20.082;2022-10-16T08:36:19;21.59;54.43
67641;SHT31;54434;50.096;20.082;2022-10-16T08:38:55;21.56;54.54
67641;SHT31;54434;50.096;20.082;2022-10-16T08:48:17;21.66;54.38
67641;SHT31;54434;50.096;20.082;2022-10-16T08:51:02;21.65;54.84
67641;SHT31;54434;50.096;20.082;2022-10-16T08:53:43;21.69;55.12
67641;SHT31;54434;50.096;20.082;2022-10-16T08:56:25;21.73;55.25
67641;SHT31;54434;50.096;20.082;2022-10-16T08:59:01;21.79;55.46
67641;SHT31;54434;50.096;20.082;2022-10-16T09:01:44;21.83;55.18
67641;SHT31;54434;50.096;20.082;2022-10-16T09:07:38;22.00;54.84
67641;SHT31;54434;50.096;20.082;2022-10-16T09:10:34;22.22;54.26
67641;SHT31;54434;50.096;20.082;2022-10-16T09:13:23;22.37;54.40
67641;SHT31;54434;50.096;20.082;2022-10-16T09:16:14;22.39;53.65
67641;SHT31;54434;50.096;20.082;2022-10-16T09:19:03;22.45;53.42
67641;SHT31;54434;50.096;20.082;2022-10-16T09:21:51;22.52;53.39
67641;SHT31;54434;50.096;20.082;2022-10-16T09:24:29;22.55;53.04
67641;SHT31;54434;50.096;20.082;2022-10-16T09:27:08;22.55;52.83
67641;SHT31;54434;50.096;20.082;2022-10-16T09:29:47;22.56;52.99
67641;SHT31;54434;50.096;20.082;2022-10-16T09:32:29;22.46;52.78
67641;SHT31;54434;50.096;20.082;2022-10-16T09:35:13;22.34;52.37
67641;SHT31;54434;50.096;20.082;2022-10-16T09:37:53;22.28;52.19
67641;SHT31;54434;50.096;20.082;2022-10-16T09:40:31;22.24;52.64
67641;SHT31;54434;50.096;20.082;2022-10-16T09:43:20;22.18;52.84
67641;SHT31;54434;50.096;20.082;2022-10-16T09:46:03;22.17;53.20
67641;SHT31;54434;50.096;20.082;2022-10-16T09:48:48;22.20;53.27
67641;SHT31;54434;50.096;20.082;2022-10-16T09:51:28;22.23;52.78
67641;SHT31;54434;50.096;20.082;2022-10-16T09:54:15;22.18;52.55
67641;SHT31;54434;50.096;20.082;2022-10-16T09:57:03;22.13;53.03
67641;SHT31;54434;50.096;20.082;2022-10-16T09:59:48;22.12;53.57
67641;SHT31;54434;50.096;20.082;2022-10-16T10:02:30;22.12;53.58
67641;SHT31;54434;50.096;20.082;2022-10-16T10:05:20;22.08;52.90
67641;SHT31;54434;50.096;20.082;2022-10-16T10:08:00;22.13;53.00
67641;SHT31;54434;50.096;20.082;2022-10-16T10:10:41;22.17;53.18
67641;SHT31;54434;50.096;20.082;2022-10-16T10:13:21;22.17;53.42
67641;SHT31;54434;50.096;20.082;2022-10-16T10:15:59;22.19;53.05
67641;SHT31;54434;50.096;20.082;2022-10-16T10:18:35;22.19;52.33
67641;SHT31;54434;50.096;20.082;2022-10-16T10:21:15;22.14;52.84
67641;SHT31;54434;50.096;20.082;2022-10-16T10:23:57;22.16;53.32
67641;SHT31;54434;50.096;20.082;2022-10-16T10:26:33;22.16;53.37
67641;SHT31;54434;50.096;20.082;2022-10-16T10:29:15;22.23;53.58
67641;SHT31;54434;50.096;20.082;2022-10-16T10:32:12;22.33;52.73
67641;SHT31;54434;50.096;20.082;2022-10-16T10:35:15;22.34;52.59
67641;SHT31;54434;50.096;20.082;2022-10-16T10:38:09;22.32;51.99
67641;SHT31;54434;50.096;20.082;2022-10-16T10:41:10;22.34;52.29
67641;SHT31;54434;50.096;20.082;2022-10-16T10:44:11;22.34;52.73
67641;SHT31;54434;50.096;20.082;2022-10-16T10:47:10;22.40;52.63
67641;SHT31;54434;50.096;20.082;2022-10-16T10:50:05;22.50;52.57
67641;SHT31;54434;50.096;20.082;2022-10-16T10:52:59;22.58;51.87
67641;SHT31;54434;50.096;20.082;2022-10-16T10:55:48;22.61;51.79
67641;SHT31;54434;50.096;20.082;2022-10-16T10:59:04;22.66;51.94
67641;SHT31;54434;50.096;20.082;2022-10-16T11:02:09;22.76;51.80
67641;SHT31;54434;50.096;20.082;2022-10-16T11:05:33;22.80;50.96
67641;SHT31;54434;50.096;20.082;2022-10-16T11:08:19;22.86;51.43
67641;SHT31;54434;50.096;20.082;2022-10-16T11:11:04;22.89;51.22
67641;SHT31;54434;50.096;20.082;2022-10-16T11:13:49;22.90;49.98
67641;SHT31;54434;50.096;20.082;2022-10-16T11:16:35;22.89;50.63
67641;SHT31;54434;50.096;20.082;2022-10-16T11:19:25;22.92;50.98
67641;SHT31;54434;50.096;20.082;2022-10-16T11:22:15;22.94;50.95
67641;SHT31;54434;50.096;20.082;2022-10-16T11:25:02;22.98;50.59
67641;SHT31;54434;50.096;20.082;2022-10-16T11:27:51;23.02;50.66
67641;SHT31;54434;50.096;20.082;2022-10-16T11:30:30;23.05;50.14
67641;SHT31;54434;50.096;20.082;2022-10-16T11:33:30;23.08;50.59
67641;SHT31;54434;50.096;20.082;2022-10-16T11:36:16;23.09;50.23
67641;SHT31;54434;50.096;20.082;2022-10-16T11:39:02;23.15;50.08
67641;SHT31;54434;50.096;20.082;2022-10-16T11:41:52;23.19;50.05
67641;SHT31;54434;50.096;20.082;2022-10-16T11:44:41;23.22;50.97
67641;SHT31;54434;50.096;20.082;2022-10-16T11:47:30;23.24;50.79
67641;SHT31;54434;50.096;20.082;2022-10-16T11:50:34;23.18;51.11
67641;SHT31;54434;50.096;20.082;2022-10-16T11:53:18;23.15;51.09
67641;SHT31;54434;50.096;20.082;2022-10-16T11:56:13;23.11;50.38
67641;SHT31;54434;50.096;20.082;2022-10-16T11:58:56;23.07;50.86
67641;SHT31;54434;50.096;20.082;2022-10-16T12:01:40;23.04;49.97
67641;SHT31;54434;50.096;20.082;2022-10-16T12:04:25;23.03;50.54
67641;SHT31;54434;50.096;20.082;2022-10-16T12:07:09;22.97;50.92
67641;SHT31;54434;50.096;20.082;2022-10-16T12:09:51;22.93;51.40
67641;SHT31;54434;50.096;20.082;2022-10-16T12:12:39;22.89;51.70
67641;SHT31;54434;50.096;20.082;2022-10-16T12:15:22;22.85;51.40
67641;SHT31;54434;50.096;20.082;2022-10-16T12:18:24;22.85;51.51
67641;SHT31;54434;50.096;20.082;2022-10-16T12:21:00;22.83;51.98
67641;SHT31;54434;50.096;20.082;2022-10-16T12:23:46;22.79;51.83
67641;SHT31;54434;50.096;20.082;2022-10-16T12:26:29;22.76;52.04
67641;SHT31;54434;50.096;20.082;2022-10-16T12:29:21;22.74;52.72
67641;SHT31;54434;50.096;20.082;2022-10-16T12:32:18;22.71;53.09
67641;SHT31;54434;50.096;20.082;2022-10-16T12:35:21;22.66;53.10
67641;SHT31;54434;50.096;20.082;2022-10-16T12:38:15;22.66;53.35
67641;SHT31;54434;50.096;20.082;2022-10-16T12:41:02;22.76;52.95
67641;SHT31;54434;50.096;20.082;2022-10-16T12:43:42;22.86;51.92
67641;SHT31;54434;50.096;20.082;2022-10-16T12:46:35;22.91;51.76
67641;SHT31;54434;50.096;20.082;2022-10-16T12:49:34;22.97;52.12
67641;SHT31;54434;50.096;20.082;2022-10-16T12:52:34;23.00;51.57
67641;SHT31;54434;50.096;20.082;2022-10-16T12:55:17;23.07;53.70
67641;SHT31;54434;50.096;20.082;2022-10-16T12:58:12;23.12;54.29
67641;SHT31;54434;50.096;20.082;2022-10-16T13:01:25;23.12;53.26
67641;SHT31;54434;50.096;20.082;2022-10-16T13:04:36;23.12;52.07
67641;SHT31;54434;50.096;20.082;2022-10-16T13:07:37;23.10;51.91
67641;SHT31;54434;50.096;20.082;2022-10-16T13:10:31;23.09;52.57
67641;SHT31;54434;50.096;20.082;2022-10-16T13:13:40;23.07;52.50
67641;SHT31;54434;50.096;20.082;2022-10-16T13:16:43;22.99;51.98
67641;SHT31;54434;50.096;20.082;2022-10-16T13:19:30;22.90;52.18
67641;SHT31;54434;50.096;20.082;2022-10-16T13:22:20;22.87;52.20
67641;SHT31;54434;50.096;20.082;2022-10-16T13:25:13;22.87;52.27
67641;SHT31;54434;50.096;20.082;2022-10-16T13:28:05;22.84;52.50
67641;SHT31;54434;50.096;20.082;2022-10-16T13:30:44;22.81;53.11
67641;SHT31;54434;50.096;20.082;2022-10-16T13:33:33;22.78;52.31
67641;SHT31;54434;50.096;20.082;2022-10-16T13:36:21;22.74;52.54
67641;SHT31;54434;50.096;20.082;2022-10-16T13:39:09;22.67;52.80
67641;SHT31;54434;50.096;20.082;2022-10-16T13:42:06;22.61;52.74
67641;SHT31;54434;50.096;20.082;2022-10-16T13:44:48;22.53;53.25
67641;SHT31;54434;50.096;20.082;2022-10-16T13:47:28;22.47;52.59
67641;SHT31;54434;50.096;20.082;2022-10-16T13:50:06;22.39;52.88
67641;SHT31;54434;50.096;20.082;2022-10-16T13:52:48;22.32;53.02
67641;SHT31;54434;50.096;20.082;2022-10-16T13:55:25;22.26;53.05
67641;SHT31;54434;50.096;20.082;2022-10-16T13:58:11;22.18;52.87
67641;SHT31;54434;50.096;20.082;2022-10-16T14:00:57;22.09;53.11
67641;SHT31;54434;50.096;20.082;2022-10-16T14:03:36;22.02;53.56
67641;SHT31;54434;50.096;20.082;2022-10-16T14:06:15;21.95;53.42
67641;SHT31;54434;50.096;20.082;2022-10-16T14:08:57;21.89;53.70
67641;SHT31;54434;50.096;20.082;2022-10-16T14:11:45;21.83;54.10
67641;SHT31;54434;50.096;20.082;2022-10-16T14:14:25;21.80;54.67
67641;SHT31;54434;50.096;20.082;2022-10-16T14:17:17;21.73;54.50
67641;SHT31;54434;50.096;20.082;2022-10-16T14:19:58;21.68;54.67
67641;SHT31;54434;50.096;20.082;2022-10-16T14:22:39;21.62;54.63
67641;SHT31;54434;50.096;20.082;2022-10-16T14:25:26;21.57;55.02
67641;SHT31;54434;50.096;20.082;2022-10-16T14:28:14;21.53;55.15
67641;SHT31;54434;50.096;20.082;2022-10-16T14:30:54;21.52;55.27
67641;SHT31;54434;50.096;20.082;2022-10-16T14:33:34;21.48;55.38
67641;SHT31;54434;50.096;20.082;2022-10-16T14:36:13;21.43;55.11
67641;SHT31;54434;50.096;20.082;2022-10-16T14:38:56;21.32;55.19
67641;SHT31;54434;50.096;20.082;2022-10-16T14:41:43;21.19;55.45
67641;SHT31;54434;50.096;20.082;2022-10-16T14:44:23;21.08;55.47
67641;SHT31;54434;50.096;20.082;2022-10-16T14:47:13;21.00;55.72
67641;SHT31;54434;50.096;20.082;2022-10-16T14:49:56;20.95;55.91
67641;SHT31;54434;50.096;20.082;2022-10-16T14:52:32;20.89;56.11
67641;SHT31;54434;50.096;20.082;2022-10-16T14:55:09;20.85;56.14
67641;SHT31;54434;50.096;20.082;2022-10-16T14:57:46;20.77;56.30
67641;SHT31;54434;50.096;20.082;2022-10-16T15:00:27;20.68;56.58
67641;SHT31;54434;50.096;20.082;2022-10-16T15:03:02;20.59;56.75
67641;SHT31;54434;50.096;20.082;2022-10-16T15:05:39;20.52;56.94
67641;SHT31;54434;50.096;20.082;2022-10-16T15:08:15;20.46;57.23
67641;SHT31;54434;50.096;20.082;2022-10-16T15:10:52;20.37;57.64
67641;SHT31;54434;50.096;20.082;2022-10-16T15:13:28;20.27;57.80
67641;SHT31;54434;50.096;20.082;2022-10-16T15:16:04;20.18;58.14
67641;SHT31;54434;50.096;20.082;2022-10-16T15:18:43;20.11;58.38
67641;SHT31;54434;50.096;20.082;2022-10-16T15:21:25;20.03;58.81
67641;SHT31;54434;50.096;20.082;2022-10-16T15:24:05;19.93;59.20
67641;SHT31;54434;50.096;20.082;2022-10-16T15:26:53;19.80;59.75
67641;SHT31;54434;50.096;20.082;2022-10-16T15:29:29;19.68;59.88
67641;SHT31;54434;50.096;20.082;2022-10-16T15:32:10;19.59;60.07
67641;SHT31;54434;50.096;20.082;2022-10-16T15:34:46;19.47;60.52
67641;SHT31;54434;50.096;20.082;2022-10-16T15:37:22;19.36;61.03
67641;SHT31;54434;50.096;20.082;2022-10-16T15:39:59;19.27;61.18
67641;SHT31;54434;50.096;20.082;2022-10-16T15:42:36;19.14;61.45
67641;SHT31;54434;50.096;20.082;2022-10-16T15:45:14;19.02;61.80
67641;SHT31;54434;50.096;20.082;2022-10-16T15:47:53;18.89;62.23
67641;SHT31;54434;50.096;20.082;2022-10-16T15:50:29;18.75;62.76
67641;SHT31;54434;50.096;20.082;2022-10-16T15:53:07;18.64;62.85
67641;SHT31;54434;50.096;20.082;2022-10-16T15:55:44;18.51;63.13
67641;SHT31;54434;50.096;20.082;2022-10-16T15:58:22;18.35;63.70
67641;SHT31;54434;50.096;20.082;2022-10-16T16:01:02;18.15;64.48
67641;SHT31;54434;50.096;20.082;2022-10-16T16:03:41;17.97;65.11
67641;SHT31;54434;50.096;20.082;2022-10-16T16:06:17;17.82;65.44
67641;SHT31;54434;50.096;20.082;2022-10-16T16:08:55;17.69;65.91
67641;SHT31;54434;50.096;20.082;2022-10-16T16:11:37;17.55;66.43
67641;SHT31;54434;50.096;20.082;2022-10-16T16:14:14;17.41;66.81
67641;SHT31;54434;50.096;20.082;2022-10-16T16:16:50;17.28;67.21
67641;SHT31;54434;50.096;20.082;2022-10-16T16:19:26;17.14;67.68
67641;SHT31;54434;50.096;20.082;2022-10-16T16:22:03;16.97;68.31
67641;SHT31;54434;50.096;20.082;2022-10-16T16:24:43;16.83;68.90
67641;SHT31;54434;50.096;20.082;2022-10-16T16:27:19;16.64;69.46
67641;SHT31;54434;50.096;20.082;2022-10-16T16:29:57;16.51;69.79
67641;SHT31;54434;50.096;20.082;2022-10-16T16:32:35;16.39;70.04
67641;SHT31;54434;50.096;20.082;2022-10-16T16:35:11;16.25;70.32
67641;SHT31;54434;50.096;20.082;2022-10-16T16:37:47;16.09;70.64
67641;SHT31;54434;50.096;20.082;2022-10-16T16:40:23;15.96;71.27
67641;SHT31;54434;50.096;20.082;2022-10-16T16:43:00;15.86;71.67
67641;SHT31;54434;50.096;20.082;2022-10-16T16:45:37;15.74;72.02
67641;SHT31;54434;50.096;20.082;2022-10-16T16:48:13;15.57;72.63
67641;SHT31;54434;50.096;20.082;2022-10-16T16:50:49;15.46;72.78
67641;SHT31;54434;50.096;20.082;2022-10-16T16:53:25;15.39;72.87